createdAt,value
2023-02-12T00:01:28.552Z,19.90
2023-02-12T00:03:30.150Z,23.10
2023-02-12T00:05:32.320Z,21.33
2023-02-12T00:07:33.798Z,21.38
2023-02-12T00:09:36.871Z,23.20
2023-02-12T00:11:38.296Z,22.17
2023-02-12T00:13:40.228Z,22.98
2023-02-12T00:15:43.327Z,23.10
2023-02-12T00:17:44.949Z,25.15
2023-02-12T00:19:57.654Z,26.08
2023-02-12T00:21:59.782Z,25.48
2023-02-12T00:24:02.543Z,23.05
2023-02-12T00:26:08.663Z,25.10
2023-02-12T00:28:10.454Z,23.67
2023-02-12T00:30:15.484Z,23.92
2023-02-12T00:32:20.384Z,22.75
2023-02-12T00:34:22.118Z,23.00
2023-02-12T00:36:26.462Z,21.88
2023-02-12T00:38:28.492Z,26.23
2023-02-12T00:40:30.178Z,22.38
2023-02-12T00:42:31.729Z,21.85
2023-02-12T00:44:33.326Z,24.80
2023-02-12T00:46:37.771Z,19.52
2023-02-12T00:48:39.661Z,22.33
2023-02-12T00:50:41.330Z,20.95
2023-02-12T00:52:42.824Z,20.35
2023-02-12T00:54:44.369Z,21.23
2023-02-12T00:56:45.935Z,20.70
2023-02-12T00:58:47.469Z,20.48
2023-02-12T01:00:49.566Z,20.88
2023-02-12T01:02:51.189Z,23.25
2023-02-12T01:04:53.065Z,23.30
2023-02-12T01:06:58.542Z,22.40
2023-02-12T01:09:01.989Z,21.05
2023-02-12T01:11:05.414Z,24.33
2023-02-12T01:13:07.222Z,21.13
2023-02-12T01:15:12.382Z,23.55
2023-02-12T01:17:14.033Z,21.92
2023-02-12T01:19:19.222Z,20.80
2023-02-12T01:21:26.952Z,22.42
2023-02-12T01:23:29.617Z,20.33
2023-02-12T01:25:31.268Z,20.27
2023-02-12T01:27:36.625Z,22.80
2023-02-12T01:29:39.737Z,21.75
2023-02-12T01:31:42.911Z,21.23
2023-02-12T01:33:48.174Z,23.02
2023-02-12T01:35:50.018Z,21.77
2023-02-12T01:37:52.826Z,24.50
2023-02-12T01:39:54.521Z,23.40
2023-02-12T01:41:56.153Z,22.70
2023-02-12T01:44:25.606Z,23.52
2023-02-12T01:46:27.259Z,23.67
2023-02-12T01:48:33.647Z,24.52
2023-02-12T01:50:36.060Z,24.58
2023-02-12T01:52:48.282Z,22.70
2023-02-12T01:54:52.281Z,23.65
2023-02-12T01:56:54.690Z,26.38
2023-02-12T01:58:57.739Z,24.50
2023-02-12T02:01:02.185Z,24.50
2023-02-12T02:03:06.618Z,23.98
2023-02-12T02:05:08.481Z,26.00
2023-02-12T02:07:13.175Z,25.25
2023-02-12T02:09:15.000Z,23.67
2023-02-12T02:11:37.300Z,25.30
2023-02-12T02:14:15.918Z,21.38
2023-02-12T02:16:26.685Z,24.23
2023-02-12T02:18:50.527Z,23.50
2023-02-12T02:21:19.254Z,23.27
2023-02-12T02:23:45.549Z,23.45
2023-02-12T02:26:11.210Z,23.88
2023-02-12T02:28:22.753Z,22.90
2023-02-12T02:30:45.478Z,22.88
2023-02-12T02:32:59.212Z,25.35
2023-02-12T02:35:54.441Z,24.17
2023-02-12T02:38:26.827Z,22.27
2023-02-12T02:40:40.654Z,22.25
2023-02-12T02:42:57.646Z,23.83
2023-02-12T02:45:11.413Z,23.95
2023-02-12T02:47:16.133Z,25.65
2023-02-12T02:49:50.403Z,24.10
2023-02-12T02:51:56.683Z,31.95
2023-02-12T02:54:23.074Z,24.42
2023-02-12T02:56:27.702Z,25.65
2023-02-12T02:58:41.446Z,25.13
2023-02-12T03:00:55.029Z,24.73
2023-02-12T03:03:02.176Z,22.17
2023-02-12T03:05:13.016Z,22.90
2023-02-12T03:07:21.150Z,23.92
2023-02-12T03:09:36.302Z,22.10
2023-02-12T03:11:38.293Z,21.65
2023-02-12T03:13:58.046Z,23.17
2023-02-12T03:16:09.572Z,19.42
2023-02-12T03:18:22.312Z,19.33
2023-02-12T03:20:31.039Z,21.92
2023-02-12T03:22:36.160Z,19.77
2023-02-12T03:24:44.547Z,23.10
2023-02-12T03:27:17.218Z,24.02
2023-02-12T03:29:18.848Z,23.27
2023-02-12T03:31:37.824Z,22.60
2023-02-12T03:34:00.801Z,22.25
2023-02-12T03:36:13.439Z,21.60
2023-02-12T03:38:33.175Z,23.85
2023-02-12T03:40:43.202Z,24.23
2023-02-12T03:43:04.391Z,22.67
2023-02-12T03:45:18.111Z,21.50
2023-02-12T03:47:39.427Z,22.95
2023-02-12T03:49:54.305Z,23.30
2023-02-12T03:51:57.254Z,25.58
2023-02-12T03:53:59.121Z,24.13
2023-02-12T03:56:27.662Z,24.80
2023-02-12T03:58:32.801Z,24.00
2023-02-12T04:00:34.601Z,24.42
2023-02-12T04:02:36.527Z,23.17
2023-02-12T04:04:38.575Z,22.55
2023-02-12T04:06:40.911Z,23.20
2023-02-12T04:08:42.450Z,26.60
2023-02-12T04:11:06.104Z,22.65
2023-02-12T04:13:33.493Z,24.10
2023-02-12T04:15:56.501Z,22.42
2023-02-12T04:18:17.874Z,24.52
2023-02-12T04:20:28.309Z,26.17
2023-02-12T04:23:02.729Z,22.83
2023-02-12T04:25:22.077Z,23.17
2023-02-12T04:27:43.454Z,23.45
2023-02-12T04:29:54.287Z,25.58
2023-02-12T04:32:03.274Z,20.03
2023-02-12T04:34:26.612Z,20.98
2023-02-12T04:36:38.630Z,24.60
2023-02-12T04:38:52.492Z,24.13
2023-02-12T04:40:58.254Z,24.52
2023-02-12T04:42:59.944Z,23.63
2023-02-12T04:45:01.546Z,23.98
2023-02-12T04:47:03.370Z,24.60
2023-02-12T04:49:04.880Z,28.55
2023-02-12T04:51:06.596Z,25.42
2023-02-12T04:53:08.893Z,27.98
2023-02-12T04:55:10.719Z,25.30
2023-02-12T04:57:12.291Z,25.63
2023-02-12T04:59:14.476Z,26.02
2023-02-12T05:01:16.027Z,24.67
2023-02-12T05:03:20.038Z,25.30
2023-02-12T05:05:22.345Z,28.02
2023-02-12T05:07:24.064Z,26.88
2023-02-12T05:09:25.622Z,26.57
2023-02-12T05:11:27.346Z,25.60
2023-02-12T05:13:28.923Z,25.05
2023-02-12T05:15:30.575Z,28.45
2023-02-12T05:17:32.419Z,24.58
2023-02-12T05:19:33.949Z,25.88
2023-02-12T05:21:40.456Z,26.35
2023-02-12T05:23:45.022Z,26.73
2023-02-12T05:25:46.588Z,27.42
2023-02-12T05:27:48.526Z,24.23
2023-02-12T05:29:50.073Z,24.60
2023-02-12T05:31:54.083Z,26.67
2023-02-12T05:33:55.822Z,24.02
2023-02-12T05:36:03.912Z,24.67
2023-02-12T05:38:05.700Z,24.55
2023-02-12T05:40:08.769Z,26.58
2023-02-12T05:42:10.445Z,24.20
2023-02-12T05:44:12.191Z,24.55
2023-02-12T05:46:17.204Z,25.13
2023-02-12T05:48:18.773Z,24.92
2023-02-12T05:50:20.300Z,22.63
2023-02-12T05:52:33.891Z,20.88
2023-02-12T05:54:35.386Z,23.08
2023-02-12T05:56:43.751Z,24.98
2023-02-12T05:58:49.005Z,24.80
2023-02-12T06:00:50.542Z,24.67
2023-02-12T06:02:52.327Z,25.65
2023-02-12T06:04:53.887Z,24.15
2023-02-12T06:06:56.457Z,22.08
2023-02-12T06:08:58.808Z,23.00
2023-02-12T06:11:02.638Z,23.13
2023-02-12T06:13:06.679Z,22.98
2023-02-12T06:15:08.698Z,19.58
2023-02-12T06:17:10.254Z,21.02
2023-02-12T06:19:12.329Z,21.25
2023-02-12T06:21:14.177Z,21.30
2023-02-12T06:23:18.986Z,22.05
2023-02-12T06:25:23.688Z,21.35
2023-02-12T06:27:25.464Z,21.50
2023-02-12T06:29:27.218Z,20.23
2023-02-12T06:31:34.706Z,19.35
2023-02-12T06:33:36.436Z,20.98
2023-02-12T06:35:38.205Z,21.35
2023-02-12T06:37:39.842Z,21.65
2023-02-12T06:39:41.460Z,22.08
2023-02-12T06:41:44.052Z,19.83
2023-02-12T06:43:45.858Z,20.90
2023-02-12T06:45:47.476Z,21.75
2023-02-12T06:47:49.178Z,21.77
2023-02-12T06:49:50.732Z,21.27
2023-02-12T06:51:52.203Z,23.17
2023-02-12T06:53:57.409Z,19.17
2023-02-12T06:56:01.367Z,23.90
2023-02-12T06:58:02.926Z,23.55
2023-02-12T07:00:05.466Z,24.60
2023-02-12T07:02:07.039Z,21.70
2023-02-12T07:04:09.936Z,21.10
2023-02-12T07:06:11.571Z,21.33
2023-02-12T07:08:13.228Z,25.08
2023-02-12T07:10:14.901Z,24.08
2023-02-12T07:12:16.522Z,22.40
2023-02-12T07:14:18.260Z,24.45
2023-02-12T07:16:20.272Z,21.65
2023-02-12T07:18:21.887Z,20.98
2023-02-12T07:20:23.523Z,23.55
2023-02-12T07:22:25.230Z,23.42
2023-02-12T07:24:26.985Z,21.73
2023-02-12T07:26:28.911Z,24.40
2023-02-12T07:28:34.735Z,25.95
2023-02-12T07:30:41.653Z,24.05
2023-02-12T07:32:44.349Z,23.98
2023-02-12T07:34:47.286Z,22.55
2023-02-12T07:36:48.918Z,21.10
2023-02-12T07:38:54.196Z,23.33
2023-02-12T07:40:58.850Z,26.45
2023-02-12T07:43:00.612Z,23.88
2023-02-12T07:45:02.716Z,25.70
2023-02-12T07:47:05.533Z,26.63
2023-02-12T07:49:10.889Z,27.77
2023-02-12T07:51:15.972Z,28.88
2023-02-12T07:53:17.479Z,28.75
2023-02-12T07:55:19.929Z,26.98
2023-02-12T07:57:21.655Z,27.52
2023-02-12T07:59:26.979Z,27.98
2023-02-12T08:01:34.159Z,33.47
2023-02-12T08:03:37.866Z,31.25
2023-02-12T08:05:39.505Z,36.25
2023-02-12T08:07:41.108Z,33.45
2023-02-12T08:09:45.820Z,33.67
2023-02-12T08:11:47.666Z,34.00
2023-02-12T08:13:49.443Z,34.38
2023-02-12T08:15:59.550Z,34.25
2023-02-12T08:18:01.703Z,31.05
2023-02-12T08:20:03.636Z,33.38
2023-02-12T08:22:06.495Z,32.88
2023-02-12T08:24:08.055Z,34.25
2023-02-12T08:26:15.939Z,35.42
2023-02-12T08:28:17.696Z,29.95
2023-02-12T08:30:19.619Z,32.33
2023-02-12T08:32:22.186Z,30.25
2023-02-12T08:34:35.263Z,31.13
2023-02-12T08:36:48.256Z,30.38
2023-02-12T08:38:50.602Z,27.77
2023-02-12T08:40:52.550Z,27.58
2023-02-12T08:42:54.259Z,29.33
2023-02-12T08:44:59.092Z,26.92
2023-02-12T08:47:00.724Z,27.85
2023-02-12T08:49:06.054Z,28.20
2023-02-12T08:51:17.417Z,27.88
2023-02-12T08:53:19.236Z,27.80
2023-02-12T08:55:20.857Z,26.13
2023-02-12T08:57:22.590Z,25.23
2023-02-12T08:59:24.566Z,22.83
2023-02-12T09:01:28.705Z,25.48
2023-02-12T09:03:30.414Z,25.98
2023-02-12T09:05:32.305Z,24.90
2023-02-12T09:07:34.237Z,26.35
2023-02-12T09:09:35.760Z,25.08
2023-02-12T09:11:37.827Z,24.85
2023-02-12T09:13:43.416Z,23.92
2023-02-12T09:15:46.098Z,28.88
2023-02-12T09:17:47.812Z,28.85
2023-02-12T09:19:49.605Z,28.83
2023-02-12T09:21:56.432Z,28.35
2023-02-12T09:24:02.196Z,26.83
2023-02-12T09:26:08.610Z,29.45
2023-02-12T09:28:11.731Z,28.52
2023-02-12T09:30:13.754Z,28.30
2023-02-12T09:32:15.265Z,29.00
2023-02-12T09:34:16.775Z,32.03
2023-02-12T09:36:18.549Z,29.33
2023-02-12T09:38:20.075Z,29.88
2023-02-12T09:40:46.536Z,30.13
2023-02-12T09:43:04.773Z,26.70
2023-02-12T09:45:26.719Z,27.50
2023-02-12T09:47:39.791Z,28.60
2023-02-12T09:50:01.658Z,27.90
2023-02-12T09:52:04.960Z,28.77
2023-02-12T09:54:13.434Z,28.48
2023-02-12T09:56:21.109Z,30.80
2023-02-12T09:58:28.461Z,28.58
2023-02-12T10:00:31.783Z,28.52
2023-02-12T10:02:41.803Z,29.77
2023-02-12T10:04:58.932Z,30.98
2023-02-12T10:07:20.081Z,27.90
2023-02-12T10:09:37.241Z,27.83
2023-02-12T10:11:54.824Z,25.95
2023-02-12T10:14:02.156Z,30.60
2023-02-12T10:16:21.552Z,29.17
2023-02-12T10:18:51.577Z,25.63
2023-02-12T10:21:32.005Z,27.35
2023-02-12T10:23:53.462Z,27.67
2023-02-12T10:26:00.851Z,29.48
2023-02-12T10:28:12.603Z,30.65
2023-02-12T10:30:22.433Z,29.33
2023-02-12T10:32:29.513Z,29.92
2023-02-12T10:34:36.092Z,30.13
2023-02-12T10:36:43.683Z,32.75
2023-02-12T10:38:51.918Z,31.42
2023-02-12T10:40:57.770Z,31.30
2023-02-12T10:43:01.666Z,34.58
2023-02-12T10:45:03.701Z,34.05
2023-02-12T10:47:05.762Z,31.92
2023-02-12T10:49:17.814Z,32.22
2023-02-12T10:51:44.734Z,32.90
2023-02-12T10:53:46.565Z,29.65
2023-02-12T10:55:48.436Z,28.98
2023-02-12T10:57:50.348Z,29.70
2023-02-12T10:59:54.343Z,30.08
2023-02-12T11:01:56.093Z,30.92
2023-02-12T11:03:59.857Z,29.75
2023-02-12T11:06:14.593Z,31.00
2023-02-12T11:08:39.304Z,32.22
2023-02-12T11:10:41.968Z,29.50
2023-02-12T11:12:48.289Z,28.88
2023-02-12T11:14:54.211Z,29.58
2023-02-12T11:17:02.599Z,31.88
2023-02-12T11:19:07.118Z,32.10
2023-02-12T11:21:11.573Z,28.77
2023-02-12T11:23:26.562Z,29.45
2023-02-12T11:25:31.302Z,29.30
2023-02-12T11:27:33.420Z,28.42
2023-02-12T11:29:37.249Z,25.35
2023-02-12T11:31:44.261Z,27.67
2023-02-12T11:33:46.162Z,30.75
2023-02-12T11:35:57.273Z,26.98
2023-02-12T11:37:59.683Z,26.25
2023-02-12T11:40:01.442Z,26.05
2023-02-12T11:42:06.681Z,26.02
2023-02-12T11:44:19.351Z,25.13
2023-02-12T11:46:24.267Z,25.10
2023-02-12T11:48:32.360Z,23.10
2023-02-12T11:50:35.301Z,23.67
2023-02-12T11:52:40.221Z,23.05
2023-02-12T11:54:46.253Z,21.33
2023-02-12T11:56:50.871Z,22.35
2023-02-12T11:58:53.026Z,23.55
2023-02-12T12:01:22.352Z,21.02
2023-02-12T12:03:40.190Z,23.30
2023-02-12T12:05:48.681Z,25.42
2023-02-12T12:07:58.754Z,27.08
2023-02-12T12:10:13.148Z,24.58
2023-02-12T12:12:24.940Z,21.27
2023-02-12T12:14:33.303Z,23.42
2023-02-12T12:17:05.511Z,25.15
2023-02-12T12:19:43.748Z,24.98
2023-02-12T12:22:03.477Z,23.75
2023-02-12T12:24:21.664Z,24.02
2023-02-12T12:26:29.381Z,20.85
2023-02-12T12:28:49.939Z,23.45
2023-02-12T12:31:17.896Z,20.40
2023-02-12T12:33:27.057Z,21.15
2023-02-12T12:35:47.627Z,19.05
2023-02-12T12:38:17.095Z,17.83
2023-02-12T12:40:21.477Z,20.95
2023-02-12T12:42:41.187Z,20.65
2023-02-12T12:45:08.588Z,20.70
2023-02-12T12:47:30.664Z,22.02
2023-02-12T12:49:38.362Z,18.73
2023-02-12T12:51:59.690Z,18.60
2023-02-12T12:54:13.432Z,18.50
2023-02-12T12:56:36.946Z,20.65
2023-02-12T12:58:59.146Z,18.42
2023-02-12T13:01:19.784Z,20.38
2023-02-12T13:03:47.153Z,17.08
2023-02-12T13:05:55.347Z,18.23
2023-02-12T13:08:19.220Z,19.45
2023-02-12T13:10:24.077Z,17.45
2023-02-12T13:12:34.928Z,18.58
2023-02-12T13:14:45.202Z,20.42
2023-02-12T13:16:58.834Z,19.50
2023-02-12T13:19:18.190Z,19.27
2023-02-12T13:21:53.476Z,19.35
2023-02-12T13:24:16.232Z,19.40
2023-02-12T13:26:30.728Z,16.95
2023-02-12T13:28:42.179Z,18.67
2023-02-12T13:30:49.640Z,18.92
2023-02-12T13:33:35.559Z,18.08
2023-02-12T13:35:44.901Z,18.55
2023-02-12T13:37:52.296Z,19.30
2023-02-12T13:40:00.479Z,19.02
2023-02-12T13:42:07.937Z,18.67
2023-02-12T13:44:12.569Z,17.55
2023-02-12T13:46:25.190Z,20.15
2023-02-12T13:48:55.400Z,18.00
2023-02-12T13:51:28.377Z,17.27
2023-02-12T13:53:56.294Z,19.13
2023-02-12T13:56:03.862Z,17.13
2023-02-12T13:58:30.472Z,17.52
2023-02-12T14:00:47.384Z,16.35
2023-02-12T14:02:52.017Z,17.30
2023-02-12T14:04:59.926Z,16.80
2023-02-12T14:07:07.835Z,17.27
2023-02-12T14:09:11.986Z,14.07
2023-02-12T14:11:17.640Z,14.23
2023-02-12T14:13:24.837Z,14.07
2023-02-12T14:15:39.218Z,12.85
2023-02-12T14:17:42.713Z,13.90
2023-02-12T14:19:50.357Z,12.48
2023-02-12T14:21:51.889Z,13.52
2023-02-12T14:23:54.328Z,13.00
2023-02-12T14:26:04.641Z,14.13
2023-02-12T14:28:09.551Z,13.00
2023-02-12T14:30:11.254Z,13.45
2023-02-12T14:32:46.988Z,12.38
2023-02-12T14:34:48.992Z,11.75
2023-02-12T14:37:11.916Z,13.27
2023-02-12T14:39:19.860Z,12.93
2023-02-12T14:41:41.864Z,14.18
2023-02-12T14:44:10.018Z,12.82
2023-02-12T14:46:23.923Z,12.18
2023-02-12T14:48:56.118Z,12.23
2023-02-12T14:51:01.678Z,13.23
2023-02-12T14:53:24.578Z,11.82
2023-02-12T14:55:34.505Z,10.95
2023-02-12T14:57:42.097Z,11.35
2023-02-12T15:00:04.672Z,13.27
2023-02-12T15:02:28.933Z,10.55
2023-02-12T15:04:42.886Z,11.50
2023-02-12T15:06:56.548Z,12.18
2023-02-12T15:09:11.977Z,12.20
2023-02-12T15:11:36.868Z,13.55
2023-02-12T15:14:17.217Z,13.10
2023-02-12T15:16:56.145Z,15.70
2023-02-12T15:19:20.379Z,13.13
2023-02-12T15:21:32.721Z,14.00
2023-02-12T15:23:39.275Z,15.18
2023-02-12T15:25:42.600Z,14.05
2023-02-12T15:27:50.332Z,17.17
2023-02-12T15:29:53.902Z,14.95
2023-02-12T15:32:07.602Z,16.20
2023-02-12T15:34:20.126Z,15.02
2023-02-12T15:36:24.949Z,15.88
2023-02-12T15:38:37.962Z,16.00
2023-02-12T15:40:57.447Z,16.60
2023-02-12T15:43:02.307Z,17.73
2023-02-12T15:45:16.349Z,17.50
2023-02-12T15:47:28.087Z,17.88
2023-02-12T15:49:36.085Z,20.40
2023-02-12T15:51:46.681Z,20.70
2023-02-12T15:53:53.920Z,24.83
2023-02-12T15:55:57.401Z,23.27
2023-02-12T15:58:01.512Z,22.83
2023-02-12T16:00:11.405Z,22.33
2023-02-12T16:02:28.417Z,20.63
2023-02-12T16:04:37.173Z,19.27
2023-02-12T16:06:39.627Z,18.40
2023-02-12T16:08:45.733Z,20.63
2023-02-12T16:10:52.331Z,21.63
2023-02-12T16:12:55.393Z,16.75
2023-02-12T16:15:00.435Z,18.10
2023-02-12T16:17:02.441Z,19.67
2023-02-12T16:19:26.766Z,17.05
2023-02-12T16:21:31.285Z,15.65
2023-02-12T16:23:33.053Z,16.25
2023-02-12T16:25:35.287Z,16.92
2023-02-12T16:27:36.836Z,18.75
2023-02-12T16:29:48.508Z,17.15
2023-02-12T16:32:29.975Z,16.90
2023-02-12T16:34:38.620Z,15.98
2023-02-12T16:36:53.365Z,16.85
2023-02-12T16:38:57.857Z,16.15
2023-02-12T16:41:31.261Z,17.08
2023-02-12T16:43:32.876Z,18.10
2023-02-12T16:45:40.047Z,15.13
2023-02-12T16:47:41.964Z,16.15
2023-02-12T16:49:55.109Z,14.05
2023-02-12T16:52:22.921Z,18.13
2023-02-12T16:54:35.612Z,16.55
2023-02-12T16:56:42.050Z,19.20
2023-02-12T16:58:45.464Z,17.60
2023-02-12T17:00:48.420Z,18.52
2023-02-12T17:02:50.257Z,16.45
2023-02-12T17:04:51.906Z,15.88
2023-02-12T17:06:55.524Z,15.80
2023-02-12T17:08:58.366Z,16.48
2023-02-12T17:11:00.265Z,16.02
2023-02-12T17:13:01.770Z,18.08
2023-02-12T17:15:05.331Z,17.90
2023-02-12T17:17:07.348Z,15.98
2023-02-12T17:19:09.675Z,18.50
2023-02-12T17:21:31.660Z,17.10
2023-02-12T17:23:37.021Z,18.58
2023-02-12T17:25:38.702Z,17.60
2023-02-12T17:27:40.305Z,18.30
2023-02-12T17:29:43.075Z,16.60
2023-02-12T17:31:45.107Z,17.83
2023-02-12T17:33:46.795Z,16.80
2023-02-12T17:35:48.655Z,16.90
2023-02-12T17:37:50.330Z,16.67
2023-02-12T17:39:52.041Z,17.15
2023-02-12T17:41:53.657Z,17.77
2023-02-12T17:43:55.246Z,19.27
2023-02-12T17:45:56.892Z,24.60
2023-02-12T17:48:00.165Z,86.47
2023-02-12T17:50:02.522Z,90.15
2023-02-12T17:52:07.220Z,68.50
2023-02-12T17:54:10.303Z,49.03
2023-02-12T17:56:20.035Z,33.10
2023-02-12T17:58:21.619Z,27.63
2023-02-12T18:00:24.487Z,21.88
2023-02-12T18:02:26.301Z,20.20
2023-02-12T18:04:27.991Z,19.52
2023-02-12T18:06:33.929Z,19.42
2023-02-12T18:08:37.684Z,19.17
2023-02-12T18:10:41.166Z,18.88
2023-02-12T18:12:42.904Z,20.70
2023-02-12T18:14:44.505Z,18.05
2023-02-12T18:16:46.398Z,17.75
2023-02-12T18:18:48.800Z,20.20
2023-02-12T18:20:52.674Z,18.13
2023-02-12T18:23:08.009Z,20.75
2023-02-12T18:25:14.731Z,18.48
2023-02-12T18:27:19.110Z,20.52
2023-02-12T18:29:23.618Z,18.70
2023-02-12T18:31:27.864Z,20.55
2023-02-12T18:33:32.437Z,21.20
2023-02-12T18:35:34.100Z,21.13
2023-02-12T18:37:35.973Z,23.83
2023-02-12T18:39:37.885Z,23.67
2023-02-12T18:41:40.285Z,24.52
2023-02-12T18:43:43.442Z,24.27
2023-02-12T18:45:45.608Z,25.45
2023-02-12T18:47:47.895Z,29.02
2023-02-12T18:49:49.508Z,33.33
2023-02-12T18:51:51.214Z,32.03
2023-02-12T18:53:56.993Z,31.17
2023-02-12T18:55:58.530Z,29.38
2023-02-12T18:58:00.267Z,31.20
2023-02-12T19:00:02.878Z,29.27
2023-02-12T19:02:05.999Z,29.15
2023-02-12T19:04:11.105Z,29.63
2023-02-12T19:06:13.116Z,30.33
2023-02-12T19:08:14.865Z,31.23
2023-02-12T19:10:16.615Z,31.20
2023-02-12T19:12:18.414Z,34.70
2023-02-12T19:14:21.760Z,42.95
2023-02-12T19:16:24.324Z,42.85
2023-02-12T19:18:26.091Z,42.97
2023-02-12T19:20:27.849Z,39.35
2023-02-12T19:22:29.784Z,37.38
2023-02-12T19:24:45.638Z,36.90
2023-02-12T19:26:52.111Z,31.90
2023-02-12T19:28:53.953Z,30.45
2023-02-12T19:30:55.915Z,29.02
2023-02-12T19:32:57.796Z,33.13
2023-02-12T19:34:59.438Z,28.33
2023-02-12T19:37:01.343Z,27.65
2023-02-12T19:39:05.881Z,28.35
2023-02-12T19:41:16.304Z,26.88
2023-02-12T19:43:17.971Z,25.48
2023-02-12T19:45:19.449Z,30.58
2023-02-12T19:47:21.042Z,30.23
2023-02-12T19:49:30.976Z,28.35
2023-02-12T19:51:32.928Z,25.30
2023-02-12T19:53:34.619Z,24.67
2023-02-12T19:55:36.108Z,24.65
2023-02-12T19:57:38.846Z,30.23
2023-02-12T19:59:43.565Z,34.88
2023-02-12T20:01:46.018Z,36.65
2023-02-12T20:03:49.732Z,40.20
2023-02-12T20:05:55.063Z,35.30
2023-02-12T20:07:56.797Z,33.05
2023-02-12T20:09:58.481Z,29.92
2023-02-12T20:12:00.260Z,28.50
2023-02-12T20:14:02.512Z,26.70
2023-02-12T20:16:06.382Z,27.13
2023-02-12T20:18:08.262Z,28.52
2023-02-12T20:20:10.932Z,30.73
2023-02-12T20:22:12.704Z,30.83
2023-02-12T20:24:14.565Z,29.65
2023-02-12T20:26:17.376Z,28.63
2023-02-12T20:28:20.280Z,29.15
2023-02-12T20:30:22.090Z,28.30
2023-02-12T20:32:23.730Z,33.53
2023-02-12T20:34:25.459Z,35.38
2023-02-12T20:36:29.761Z,31.58
2023-02-12T20:38:31.796Z,31.90
2023-02-12T20:40:33.626Z,32.97
2023-02-12T20:42:35.245Z,32.53
2023-02-12T20:44:41.777Z,35.25
2023-02-12T20:46:47.520Z,36.10
2023-02-12T20:48:49.889Z,28.25
2023-02-12T20:50:51.419Z,26.80
2023-02-12T20:52:53.050Z,28.05
2023-02-12T20:54:54.708Z,27.30
2023-02-12T20:56:58.995Z,28.33
2023-02-12T20:59:01.379Z,28.25
2023-02-12T21:01:05.734Z,25.58
2023-02-12T21:03:10.100Z,30.20
2023-02-12T21:05:17.408Z,31.80
2023-02-12T21:07:19.028Z,33.60
2023-02-12T21:09:20.732Z,29.58
2023-02-12T21:11:24.161Z,29.83
2023-02-12T21:13:25.987Z,31.48
2023-02-12T21:15:27.763Z,31.52
2023-02-12T21:17:29.394Z,33.63
2023-02-12T21:19:31.048Z,30.30
2023-02-12T21:21:34.968Z,32.35
2023-02-12T21:23:36.939Z,33.45
2023-02-12T21:25:41.325Z,30.27
2023-02-12T21:27:42.854Z,27.70
2023-02-12T21:29:44.482Z,28.13
2023-02-12T21:31:49.081Z,29.35
2023-02-12T21:33:52.395Z,26.35
2023-02-12T21:35:54.171Z,28.38
2023-02-12T21:37:55.819Z,29.08
2023-02-12T21:39:57.739Z,28.42
2023-02-12T21:42:03.970Z,26.92
2023-02-12T21:44:13.874Z,26.85
2023-02-12T21:46:16.425Z,24.58
2023-02-12T21:48:18.154Z,25.40
2023-02-12T21:50:19.742Z,26.83
2023-02-12T21:52:21.388Z,25.90
2023-02-12T21:54:23.220Z,24.95
2023-02-12T21:56:25.884Z,26.02
2023-02-12T21:58:27.464Z,25.67
2023-02-12T22:00:29.289Z,26.48
2023-02-12T22:02:30.976Z,22.70
2023-02-12T22:04:32.683Z,23.20
2023-02-12T22:06:42.596Z,24.55
2023-02-12T22:08:44.414Z,26.98
2023-02-12T22:10:48.710Z,23.38
2023-02-12T22:12:50.636Z,26.30
2023-02-12T22:14:52.329Z,23.58
2023-02-12T22:16:54.713Z,26.40
2023-02-12T22:18:59.320Z,26.38
2023-02-12T22:21:02.404Z,26.63
2023-02-12T22:23:04.268Z,28.10
2023-02-12T22:25:08.769Z,24.90
2023-02-12T22:27:10.227Z,24.83
2023-02-12T22:29:15.698Z,25.50
2023-02-12T22:31:24.179Z,24.90
2023-02-12T22:33:25.795Z,22.23
2023-02-12T22:35:27.579Z,22.05
2023-02-12T22:37:29.142Z,22.95
2023-02-12T22:39:31.009Z,23.58
2023-02-12T22:41:33.646Z,21.92
2023-02-12T22:43:37.079Z,20.80
2023-02-12T22:45:43.457Z,20.88
2023-02-12T22:47:45.091Z,23.90
2023-02-12T22:49:46.605Z,20.95
2023-02-12T22:51:51.107Z,21.17
2023-02-12T22:53:53.171Z,22.17
2023-02-12T22:55:54.758Z,20.15
2023-02-12T22:57:56.274Z,21.90
2023-02-12T23:00:04.737Z,20.23
2023-02-12T23:02:06.383Z,19.70
2023-02-12T23:04:12.912Z,21.13
2023-02-12T23:06:17.273Z,20.35
2023-02-12T23:08:18.806Z,22.52
2023-02-12T23:10:20.557Z,24.77
2023-02-12T23:12:22.032Z,21.00
2023-02-12T23:14:23.771Z,23.08
2023-02-12T23:16:25.809Z,24.95
2023-02-12T23:18:27.374Z,23.92
2023-02-12T23:20:29.011Z,23.77
2023-02-12T23:22:30.436Z,27.20
2023-02-12T23:24:31.961Z,26.35
2023-02-12T23:26:33.663Z,24.27
2023-02-12T23:28:37.815Z,23.65
2023-02-12T23:30:39.815Z,24.75
2023-02-12T23:32:46.912Z,26.98
2023-02-12T23:34:48.557Z,21.98
2023-02-12T23:36:50.235Z,25.33
2023-02-12T23:38:51.880Z,23.48
2023-02-12T23:40:53.605Z,22.17
2023-02-12T23:42:55.137Z,25.73
2023-02-12T23:44:57.630Z,24.67
2023-02-12T23:46:59.587Z,20.45
2023-02-12T23:49:01.212Z,21.27
2023-02-12T23:51:02.943Z,21.35
2023-02-12T23:53:04.547Z,20.63
2023-02-12T23:55:07.027Z,21.08
2023-02-12T23:57:08.625Z,21.92
2023-02-12T23:59:10.225Z,19.73
